sensor_id;sensor_type;location;lat;lon;timestamp;temperature;humidity
74792;SHT30;63319;46.046;17.802;2024-02-15T00:01:42;8.35;68.28
74792;SHT30;63319;46.046;17.802;2024-02-15T00:04:45;8.08;69.16
74792;SHT30;63319;46.046;17.802;2024-02-15T00:07:48;7.59;71.29
74792;SHT30;63319;46.046;17.802;2024-02-15T00:10:52;7.54;71.99
74792;SHT30;63319;46.046;17.802;2024-02-15T00:13:56;7.58;72.25
74792;SHT30;63319;46.046;17.802;2024-02-15T00:16:59;7.63;71.95
74792;SHT30;63319;46.046;17.802;2024-02-15T00:20:03;7.51;72.30
74792;SHT30;63319;46.046;17.802;2024-02-15T00:23:12;7.46;72.61
74792;SHT30;63319;46.046;17.802;2024-02-15T00:26:16;8.01;71.64
74792;SHT30;63319;46.046;17.802;2024-02-15T00:29:19;7.85;71.61
74792;SHT30;63319;46.046;17.802;2024-02-15T00:32:21;8.13;70.96
74792;SHT30;63319;46.046;17.802;2024-02-15T00:35:25;8.20;71.36
74792;SHT30;63319;46.046;17.802;2024-02-15T00:38:31;8.28;70.42
74792;SHT30;63319;46.046;17.802;2024-02-15T00:41:34;8.38;70.71
74792;SHT30;63319;46.046;17.802;2024-02-15T00:44:39;8.49;69.66
74792;SHT30;63319;46.046;17.802;2024-02-15T00:47:42;7.97;72.11
74792;SHT30;63319;46.046;17.802;2024-02-15T00:50:45;8.17;70.96
74792;SHT30;63319;46.046;17.802;2024-02-15T00:53:48;8.14;71.08
74792;SHT30;63319;46.046;17.802;2024-02-15T00:56:51;8.82;69.53
74792;SHT30;63319;46.046;17.802;2024-02-15T00:59:55;8.93;69.00
74792;SHT30;63319;46.046;17.802;2024-02-15T01:02:58;7.75;72.34
74792;SHT30;63319;46.046;17.802;2024-02-15T01:06:01;7.83;72.29
74792;SHT30;63319;46.046;17.802;2024-02-15T01:09:05;7.69;73.23
74792;SHT30;63319;46.046;17.802;2024-02-15T01:12:08;8.65;71.07
74792;SHT30;63319;46.046;17.802;2024-02-15T01:15:13;8.71;69.13
74792;SHT30;63319;46.046;17.802;2024-02-15T01:18:16;8.35;69.98
74792;SHT30;63319;46.046;17.802;2024-02-15T01:21:19;7.96;72.77
74792;SHT30;63319;46.046;17.802;2024-02-15T01:24:22;7.90;72.12
74792;SHT30;63319;46.046;17.802;2024-02-15T01:27:28;8.21;71.54
74792;SHT30;63319;46.046;17.802;2024-02-15T01:30:33;8.04;72.14
74792;SHT30;63319;46.046;17.802;2024-02-15T01:33:37;7.76;74.02
74792;SHT30;63319;46.046;17.802;2024-02-15T01:36:40;7.82;73.42
74792;SHT30;63319;46.046;17.802;2024-02-15T01:39:42;7.67;73.95
74792;SHT30;63319;46.046;17.802;2024-02-15T01:42:45;7.66;74.32
74792;SHT30;63319;46.046;17.802;2024-02-15T01:45:48;7.63;73.28
74792;SHT30;63319;46.046;17.802;2024-02-15T01:48:51;7.44;74.27
74792;SHT30;63319;46.046;17.802;2024-02-15T01:51:55;7.45;73.68
74792;SHT30;63319;46.046;17.802;2024-02-15T01:55:00;7.22;74.98
74792;SHT30;63319;46.046;17.802;2024-02-15T01:58:05;7.36;74.97
74792;SHT30;63319;46.046;17.802;2024-02-15T02:01:09;7.35;75.00
74792;SHT30;63319;46.046;17.802;2024-02-15T02:04:12;7.61;75.30
74792;SHT30;63319;46.046;17.802;2024-02-15T02:07:16;7.22;75.95
74792;SHT30;63319;46.046;17.802;2024-02-15T02:10:19;7.56;74.20
74792;SHT30;63319;46.046;17.802;2024-02-15T02:13:23;7.18;75.58
74792;SHT30;63319;46.046;17.802;2024-02-15T02:16:31;7.25;75.94
74792;SHT30;63319;46.046;17.802;2024-02-15T02:19:38;7.48;75.14
74792;SHT30;63319;46.046;17.802;2024-02-15T02:22:41;7.54;74.26
74792;SHT30;63319;46.046;17.802;2024-02-15T02:25:48;7.65;74.33
74792;SHT30;63319;46.046;17.802;2024-02-15T02:28:52;7.83;73.04
74792;SHT30;63319;46.046;17.802;2024-02-15T02:31:57;7.85;73.71
74792;SHT30;63319;46.046;17.802;2024-02-15T02:35:00;7.90;73.30
74792;SHT30;63319;46.046;17.802;2024-02-15T02:38:03;7.97;72.93
74792;SHT30;63319;46.046;17.802;2024-02-15T02:41:06;7.72;74.02
74792;SHT30;63319;46.046;17.802;2024-02-15T02:44:09;7.90;73.80
74792;SHT30;63319;46.046;17.802;2024-02-15T02:47:12;8.21;73.36
74792;SHT30;63319;46.046;17.802;2024-02-15T02:50:16;8.34;73.16
74792;SHT30;63319;46.046;17.802;2024-02-15T02:53:19;8.55;72.31
74792;SHT30;63319;46.046;17.802;2024-02-15T02:56:22;8.90;70.86
74792;SHT30;63319;46.046;17.802;2024-02-15T02:59:25;7.98;73.22
74792;SHT30;63319;46.046;17.802;2024-02-15T03:02:28;8.20;74.11
74792;SHT30;63319;46.046;17.802;2024-02-15T03:05:32;8.28;73.33
74792;SHT30;63319;46.046;17.802;2024-02-15T03:08:35;8.44;72.35
74792;SHT30;63319;46.046;17.802;2024-02-15T03:11:38;8.72;71.43
74792;SHT30;63319;46.046;17.802;2024-02-15T03:14:41;8.46;72.50
74792;SHT30;63319;46.046;17.802;2024-02-15T03:17:46;8.28;73.19
74792;SHT30;63319;46.046;17.802;2024-02-15T03:20:51;8.07;73.17
74792;SHT30;63319;46.046;17.802;2024-02-15T03:23:54;7.83;74.76
74792;SHT30;63319;46.046;17.802;2024-02-15T03:26:57;8.49;73.50
74792;SHT30;63319;46.046;17.802;2024-02-15T03:30:00;8.62;71.67
74792;SHT30;63319;46.046;17.802;2024-02-15T03:33:03;7.98;73.64
74792;SHT30;63319;46.046;17.802;2024-02-15T03:36:09;8.52;72.07
74792;SHT30;63319;46.046;17.802;2024-02-15T03:39:14;8.37;72.66
74792;SHT30;63319;46.046;17.802;2024-02-15T03:42:17;8.56;71.67
74792;SHT30;63319;46.046;17.802;2024-02-15T03:45:20;8.69;72.08
74792;SHT30;63319;46.046;17.802;2024-02-15T03:48:27;8.77;71.99
74792;SHT30;63319;46.046;17.802;2024-02-15T03:51:30;8.55;71.57
74792;SHT30;63319;46.046;17.802;2024-02-15T03:54:35;8.56;72.44
74792;SHT30;63319;46.046;17.802;2024-02-15T03:57:38;8.46;73.27
74792;SHT30;63319;46.046;17.802;2024-02-15T04:00:46;7.82;74.96
74792;SHT30;63319;46.046;17.802;2024-02-15T04:03:49;8.30;74.70
74792;SHT30;63319;46.046;17.802;2024-02-15T04:06:52;8.07;74.29
74792;SHT30;63319;46.046;17.802;2024-02-15T04:09:55;8.42;73.60
74792;SHT30;63319;46.046;17.802;2024-02-15T04:12:58;7.97;75.16
74792;SHT30;63319;46.046;17.802;2024-02-15T04:16:01;7.82;74.96
74792;SHT30;63319;46.046;17.802;2024-02-15T04:19:05;7.90;75.62
74792;SHT30;63319;46.046;17.802;2024-02-15T04:22:08;7.98;75.34
74792;SHT30;63319;46.046;17.802;2024-02-15T04:25:11;7.67;75.60
74792;SHT30;63319;46.046;17.802;2024-02-15T04:28:20;7.82;75.93
74792;SHT30;63319;46.046;17.802;2024-02-15T04:31:23;8.27;73.54
74792;SHT30;63319;46.046;17.802;2024-02-15T04:34:29;8.80;72.57
74792;SHT30;63319;46.046;17.802;2024-02-15T04:37:36;8.92;71.65
74792;SHT30;63319;46.046;17.802;2024-02-15T04:40:40;8.38;72.06
74792;SHT30;63319;46.046;17.802;2024-02-15T04:43:43;8.61;72.04
74792;SHT30;63319;46.046;17.802;2024-02-15T04:46:49;8.51;72.74
74792;SHT30;63319;46.046;17.802;2024-02-15T04:49:52;8.75;71.93
74792;SHT30;63319;46.046;17.802;2024-02-15T04:52:55;8.45;74.28
74792;SHT30;63319;46.046;17.802;2024-02-15T04:55:58;7.93;73.98
74792;SHT30;63319;46.046;17.802;2024-02-15T04:59:09;7.91;74.55
74792;SHT30;63319;46.046;17.802;2024-02-15T05:02:17;8.80;71.71
74792;SHT30;63319;46.046;17.802;2024-02-15T05:05:22;7.96;74.36
74792;SHT30;63319;46.046;17.802;2024-02-15T05:08:26;8.00;74.18
74792;SHT30;63319;46.046;17.802;2024-02-15T05:11:30;8.40;73.02
74792;SHT30;63319;46.046;17.802;2024-02-15T05:14:33;7.83;75.61
74792;SHT30;63319;46.046;17.802;2024-02-15T05:17:42;8.13;75.07
74792;SHT30;63319;46.046;17.802;2024-02-15T05:20:45;8.10;75.19
74792;SHT30;63319;46.046;17.802;2024-02-15T05:23:48;8.45;74.12
74792;SHT30;63319;46.046;17.802;2024-02-15T05:26:51;8.00;75.22
74792;SHT30;63319;46.046;17.802;2024-02-15T05:29:55;7.83;75.91
74792;SHT30;63319;46.046;17.802;2024-02-15T05:32:59;8.37;74.65
74792;SHT30;63319;46.046;17.802;2024-02-15T05:36:03;8.61;73.48
74792;SHT30;63319;46.046;17.802;2024-02-15T05:39:06;8.41;73.43
74792;SHT30;63319;46.046;17.802;2024-02-15T05:42:10;8.42;73.71
74792;SHT30;63319;46.046;17.802;2024-02-15T05:48:26;8.30;73.45
74792;SHT30;63319;46.046;17.802;2024-02-15T05:51:30;7.93;74.71
74792;SHT30;63319;46.046;17.802;2024-02-15T05:54:34;8.25;75.42
74792;SHT30;63319;46.046;17.802;2024-02-15T05:57:37;8.10;74.84
74792;SHT30;63319;46.046;17.802;2024-02-15T06:00:40;8.03;75.33
74792;SHT30;63319;46.046;17.802;2024-02-15T06:03:44;7.77;76.78
74792;SHT30;63319;46.046;17.802;2024-02-15T06:06:47;8.40;74.46
74792;SHT30;63319;46.046;17.802;2024-02-15T06:09:52;7.97;75.87
74792;SHT30;63319;46.046;17.802;2024-02-15T06:12:56;7.91;75.33
74792;SHT30;63319;46.046;17.802;2024-02-15T06:16:00;8.23;75.49
74792;SHT30;63319;46.046;17.802;2024-02-15T06:19:03;7.98;74.63
74792;SHT30;63319;46.046;17.802;2024-02-15T06:22:07;8.37;73.68
74792;SHT30;63319;46.046;17.802;2024-02-15T06:25:11;8.27;74.65
74792;SHT30;63319;46.046;17.802;2024-02-15T06:28:14;8.52;73.42
74792;SHT30;63319;46.046;17.802;2024-02-15T06:31:35;8.54;72.43
74792;SHT30;63319;46.046;17.802;2024-02-15T06:34:57;8.55;73.25
74792;SHT30;63319;46.046;17.802;2024-02-15T06:38:18;9.14;71.68
74792;SHT30;63319;46.046;17.802;2024-02-15T06:41:40;9.03;71.44
74792;SHT30;63319;46.046;17.802;2024-02-15T06:44:44;8.66;71.98
74792;SHT30;63319;46.046;17.802;2024-02-15T06:47:47;7.97;75.07
74792;SHT30;63319;46.046;17.802;2024-02-15T06:50:50;8.30;74.63
74792;SHT30;63319;46.046;17.802;2024-02-15T06:53:53;8.42;75.10
74792;SHT30;63319;46.046;17.802;2024-02-15T06:56:59;8.34;75.66
74792;SHT30;63319;46.046;17.802;2024-02-15T07:00:08;9.19;73.37
74792;SHT30;63319;46.046;17.802;2024-02-15T07:03:12;8.56;75.19
74792;SHT30;63319;46.046;17.802;2024-02-15T07:06:15;9.27;72.97
74792;SHT30;63319;46.046;17.802;2024-02-15T07:09:20;9.06;71.45
74792;SHT30;63319;46.046;17.802;2024-02-15T07:12:25;8.96;72.37
74792;SHT30;63319;46.046;17.802;2024-02-15T07:15:28;9.20;71.85
74792;SHT30;63319;46.046;17.802;2024-02-15T07:18:34;8.61;71.94
74792;SHT30;63319;46.046;17.802;2024-02-15T07:21:37;8.86;71.73
74792;SHT30;63319;46.046;17.802;2024-02-15T07:24:41;9.27;67.70
74792;SHT30;63319;46.046;17.802;2024-02-15T07:27:44;9.44;68.91
74792;SHT30;63319;46.046;17.802;2024-02-15T07:30:47;9.45;68.67
74792;SHT30;63319;46.046;17.802;2024-02-15T07:33:54;10.09;66.85
74792;SHT30;63319;46.046;17.802;2024-02-15T07:36:59;9.59;67.90
74792;SHT30;63319;46.046;17.802;2024-02-15T07:40:03;9.34;68.84
74792;SHT30;63319;46.046;17.802;2024-02-15T07:43:11;9.75;67.90
74792;SHT30;63319;46.046;17.802;2024-02-15T07:46:15;9.95;67.69
74792;SHT30;63319;46.046;17.802;2024-02-15T07:49:19;9.59;68.07
74792;SHT30;63319;46.046;17.802;2024-02-15T07:52:23;9.52;68.37
74792;SHT30;63319;46.046;17.802;2024-02-15T07:55:26;10.40;66.41
74792;SHT30;63319;46.046;17.802;2024-02-15T07:58:30;10.24;63.86
74792;SHT30;63319;46.046;17.802;2024-02-15T08:01:34;9.96;63.94
74792;SHT30;63319;46.046;17.802;2024-02-15T08:04:37;9.90;65.39
74792;SHT30;63319;46.046;17.802;2024-02-15T08:07:44;10.09;66.41
74792;SHT30;63319;46.046;17.802;2024-02-15T08:10:48;10.30;64.61
74792;SHT30;63319;46.046;17.802;2024-02-15T08:13:54;9.99;64.66
74792;SHT30;63319;46.046;17.802;2024-02-15T08:16:57;10.44;61.75
74792;SHT30;63319;46.046;17.802;2024-02-15T08:20:00;10.38;61.63
74792;SHT30;63319;46.046;17.802;2024-02-15T08:23:03;10.48;62.34
74792;SHT30;63319;46.046;17.802;2024-02-15T08:26:06;10.47;61.37
74792;SHT30;63319;46.046;17.802;2024-02-15T08:29:10;10.64;60.58
74792;SHT30;63319;46.046;17.802;2024-02-15T08:32:14;10.44;57.54
74792;SHT30;63319;46.046;17.802;2024-02-15T08:35:17;10.46;59.10
74792;SHT30;63319;46.046;17.802;2024-02-15T08:38:22;10.41;57.31
74792;SHT30;63319;46.046;17.802;2024-02-15T08:41:25;11.40;56.30
74792;SHT30;63319;46.046;17.802;2024-02-15T08:44:29;12.59;54.95
74792;SHT30;63319;46.046;17.802;2024-02-15T08:47:32;15.55;47.44
74792;SHT30;63319;46.046;17.802;2024-02-15T08:50:35;14.69;49.29
74792;SHT30;63319;46.046;17.802;2024-02-15T08:53:38;16.05;44.96
74792;SHT30;63319;46.046;17.802;2024-02-15T08:56:41;16.71;43.60
74792;SHT30;63319;46.046;17.802;2024-02-15T08:59:45;17.22;41.65
74792;SHT30;63319;46.046;17.802;2024-02-15T09:02:48;15.95;42.97
74792;SHT30;63319;46.046;17.802;2024-02-15T09:05:56;17.43;43.61
74792;SHT30;63319;46.046;17.802;2024-02-15T09:09:01;17.80;40.35
74792;SHT30;63319;46.046;17.802;2024-02-15T09:12:04;17.79;41.40
74792;SHT30;63319;46.046;17.802;2024-02-15T09:15:11;18.60;40.39
74792;SHT30;63319;46.046;17.802;2024-02-15T09:18:14;19.63;37.44
74792;SHT30;63319;46.046;17.802;2024-02-15T09:21:18;19.13;38.95
74792;SHT30;63319;46.046;17.802;2024-02-15T09:24:21;17.38;42.10
74792;SHT30;63319;46.046;17.802;2024-02-15T09:27:28;17.05;43.86
74792;SHT30;63319;46.046;17.802;2024-02-15T09:30:30;16.85;44.15
74792;SHT30;63319;46.046;17.802;2024-02-15T09:33:34;16.15;44.03
74792;SHT30;63319;46.046;17.802;2024-02-15T09:36:37;15.87;44.90
74792;SHT30;63319;46.046;17.802;2024-02-15T09:39:40;15.65;45.76
74792;SHT30;63319;46.046;17.802;2024-02-15T09:42:44;15.50;47.04
74792;SHT30;63319;46.046;17.802;2024-02-15T09:45:48;15.48;46.29
74792;SHT30;63319;46.046;17.802;2024-02-15T09:48:52;15.47;46.53
74792;SHT30;63319;46.046;17.802;2024-02-15T09:52:03;14.72;47.42
74792;SHT30;63319;46.046;17.802;2024-02-15T09:55:07;14.79;47.15
74792;SHT30;63319;46.046;17.802;2024-02-15T09:58:16;14.55;48.31
74792;SHT30;63319;46.046;17.802;2024-02-15T10:01:22;13.59;50.97
74792;SHT30;63319;46.046;17.802;2024-02-15T10:04:26;13.77;50.51
74792;SHT30;63319;46.046;17.802;2024-02-15T10:07:30;14.00;49.95
74792;SHT30;63319;46.046;17.802;2024-02-15T10:10:33;13.94;51.59
74792;SHT30;63319;46.046;17.802;2024-02-15T10:13:38;14.02;50.90
74792;SHT30;63319;46.046;17.802;2024-02-15T10:16:42;14.51;50.14
74792;SHT30;63319;46.046;17.802;2024-02-15T10:20:06;14.27;50.50
74792;SHT30;63319;46.046;17.802;2024-02-15T10:23:10;14.35;50.38
74792;SHT30;63319;46.046;17.802;2024-02-15T10:26:20;14.51;51.00
74792;SHT30;63319;46.046;17.802;2024-02-15T10:29:25;14.55;48.53
74792;SHT30;63319;46.046;17.802;2024-02-15T10:32:34;14.65;49.43
74792;SHT30;63319;46.046;17.802;2024-02-15T10:35:38;15.00;48.51
74792;SHT30;63319;46.046;17.802;2024-02-15T10:38:42;15.16;47.87
74792;SHT30;63319;46.046;17.802;2024-02-15T10:41:46;15.96;45.61
74792;SHT30;63319;46.046;17.802;2024-02-15T10:44:51;17.11;42.66
74792;SHT30;63319;46.046;17.802;2024-02-15T10:47:55;17.56;41.54
74792;SHT30;63319;46.046;17.802;2024-02-15T10:51:03;17.43;41.98
74792;SHT30;63319;46.046;17.802;2024-02-15T10:54:08;17.26;43.23
74792;SHT30;63319;46.046;17.802;2024-02-15T10:57:20;16.39;44.67
74792;SHT30;63319;46.046;17.802;2024-02-15T11:00:27;16.42;45.58
74792;SHT30;63319;46.046;17.802;2024-02-15T11:03:43;17.96;41.85
74792;SHT30;63319;46.046;17.802;2024-02-15T11:06:50;17.15;42.89
74792;SHT30;63319;46.046;17.802;2024-02-15T11:09:58;17.22;42.02
74792;SHT30;63319;46.046;17.802;2024-02-15T11:13:05;17.14;42.88
74792;SHT30;63319;46.046;17.802;2024-02-15T11:16:08;17.38;42.96
74792;SHT30;63319;46.046;17.802;2024-02-15T11:22:39;17.35;42.25
74792;SHT30;63319;46.046;17.802;2024-02-15T11:25:42;17.16;43.35
74792;SHT30;63319;46.046;17.802;2024-02-15T11:28:46;16.33;43.98
74792;SHT30;63319;46.046;17.802;2024-02-15T11:31:54;16.67;44.59
74792;SHT30;63319;46.046;17.802;2024-02-15T11:35:04;17.73;41.20
74792;SHT30;63319;46.046;17.802;2024-02-15T11:38:29;17.02;44.22
74792;SHT30;63319;46.046;17.802;2024-02-15T11:41:32;18.45;40.27
74792;SHT30;63319;46.046;17.802;2024-02-15T11:44:36;20.81;35.29
74792;SHT30;63319;46.046;17.802;2024-02-15T11:47:39;21.22;33.63
74792;SHT30;63319;46.046;17.802;2024-02-15T11:50:46;22.01;33.36
74792;SHT30;63319;46.046;17.802;2024-02-15T11:53:58;19.94;36.04
74792;SHT30;63319;46.046;17.802;2024-02-15T11:57:02;19.38;37.90
74792;SHT30;63319;46.046;17.802;2024-02-15T12:00:21;20.77;34.04
74792;SHT30;63319;46.046;17.802;2024-02-15T12:03:43;21.15;32.94
74792;SHT30;63319;46.046;17.802;2024-02-15T12:07:10;21.40;33.27
74792;SHT30;63319;46.046;17.802;2024-02-15T12:10:32;20.95;33.52
74792;SHT30;63319;46.046;17.802;2024-02-15T12:13:53;21.68;31.12
74792;SHT30;63319;46.046;17.802;2024-02-15T12:17:15;20.37;35.21
74792;SHT30;63319;46.046;17.802;2024-02-15T12:20:36;20.27;33.86
74792;SHT30;63319;46.046;17.802;2024-02-15T12:23:40;20.65;33.64
74792;SHT30;63319;46.046;17.802;2024-02-15T12:26:44;21.43;34.22
74792;SHT30;63319;46.046;17.802;2024-02-15T12:29:53;21.46;32.29
74792;SHT30;63319;46.046;17.802;2024-02-15T12:33:12;21.67;31.63
74792;SHT30;63319;46.046;17.802;2024-02-15T12:36:19;23.92;28.25
74792;SHT30;63319;46.046;17.802;2024-02-15T12:39:26;23.21;30.46
74792;SHT30;63319;46.046;17.802;2024-02-15T12:42:31;24.33;29.20
74792;SHT30;63319;46.046;17.802;2024-02-15T12:45:36;22.74;30.88
74792;SHT30;63319;46.046;17.802;2024-02-15T12:48:41;21.37;31.96
74792;SHT30;63319;46.046;17.802;2024-02-15T12:55:29;21.15;32.83
74792;SHT30;63319;46.046;17.802;2024-02-15T12:58:37;22.06;32.07
74792;SHT30;63319;46.046;17.802;2024-02-15T13:01:42;21.39;31.21
74792;SHT30;63319;46.046;17.802;2024-02-15T13:04:45;20.57;33.46
74792;SHT30;63319;46.046;17.802;2024-02-15T13:07:50;20.52;33.76
74792;SHT30;63319;46.046;17.802;2024-02-15T13:10:54;21.05;33.37
74792;SHT30;63319;46.046;17.802;2024-02-15T13:13:59;21.85;31.66
74792;SHT30;63319;46.046;17.802;2024-02-15T13:17:02;21.19;32.58
74792;SHT30;63319;46.046;17.802;2024-02-15T13:20:07;20.50;32.73
74792;SHT30;63319;46.046;17.802;2024-02-15T13:23:14;19.66;35.14
74792;SHT30;63319;46.046;17.802;2024-02-15T13:26:18;18.44;37.44
74792;SHT30;63319;46.046;17.802;2024-02-15T13:29:22;18.10;38.59
74792;SHT30;63319;46.046;17.802;2024-02-15T13:32:26;18.21;37.72
74792;SHT30;63319;46.046;17.802;2024-02-15T13:35:31;18.69;36.52
74792;SHT30;63319;46.046;17.802;2024-02-15T13:38:34;17.96;37.94
74792;SHT30;63319;46.046;17.802;2024-02-15T13:41:39;17.35;39.78
74792;SHT30;63319;46.046;17.802;2024-02-15T13:44:44;17.35;38.94
74792;SHT30;63319;46.046;17.802;2024-02-15T13:47:47;17.31;39.64
74792;SHT30;63319;46.046;17.802;2024-02-15T13:50:53;16.74;40.98
74792;SHT30;63319;46.046;17.802;2024-02-15T13:53:56;16.77;40.73
74792;SHT30;63319;46.046;17.802;2024-02-15T13:57:02;17.00;40.13
74792;SHT30;63319;46.046;17.802;2024-02-15T14:00:06;16.95;39.83
74792;SHT30;63319;46.046;17.802;2024-02-15T14:03:13;16.74;38.69
74792;SHT30;63319;46.046;17.802;2024-02-15T14:06:18;16.49;38.94
74792;SHT30;63319;46.046;17.802;2024-02-15T14:09:21;16.42;39.92
74792;SHT30;63319;46.046;17.802;2024-02-15T14:12:28;16.46;38.76
74792;SHT30;63319;46.046;17.802;2024-02-15T14:15:33;16.37;41.37
74792;SHT30;63319;46.046;17.802;2024-02-15T14:18:43;16.27;41.27
74792;SHT30;63319;46.046;17.802;2024-02-15T14:21:48;16.01;40.21
74792;SHT30;63319;46.046;17.802;2024-02-15T14:24:51;15.88;39.39
74792;SHT30;63319;46.046;17.802;2024-02-15T14:27:54;16.06;39.79
74792;SHT30;63319;46.046;17.802;2024-02-15T14:30:58;16.46;37.72
74792;SHT30;63319;46.046;17.802;2024-02-15T14:34:22;16.49;37.90
74792;SHT30;63319;46.046;17.802;2024-02-15T14:37:28;16.25;40.92
74792;SHT30;63319;46.046;17.802;2024-02-15T14:40:41;16.32;39.83
74792;SHT30;63319;46.046;17.802;2024-02-15T14:43:49;16.10;41.82
74792;SHT30;63319;46.046;17.802;2024-02-15T14:46:53;16.40;45.07
74792;SHT30;63319;46.046;17.802;2024-02-15T14:49:56;16.19;47.97
74792;SHT30;63319;46.046;17.802;2024-02-15T14:52:59;15.87;49.57
74792;SHT30;63319;46.046;17.802;2024-02-15T14:56:02;15.78;50.63
74792;SHT30;63319;46.046;17.802;2024-02-15T14:59:07;15.95;51.17
74792;SHT30;63319;46.046;17.802;2024-02-15T15:02:10;15.74;51.42
74792;SHT30;63319;46.046;17.802;2024-02-15T15:05:14;15.43;51.85
74792;SHT30;63319;46.046;17.802;2024-02-15T15:08:36;15.41;51.88
74792;SHT30;63319;46.046;17.802;2024-02-15T15:11:57;15.13;53.46
74792;SHT30;63319;46.046;17.802;2024-02-15T15:15:19;14.93;53.94
74792;SHT30;63319;46.046;17.802;2024-02-15T15:18:21;14.96;54.49
74792;SHT30;63319;46.046;17.802;2024-02-15T15:21:24;14.76;54.89
74792;SHT30;63319;46.046;17.802;2024-02-15T15:24:31;14.60;55.26
74792;SHT30;63319;46.046;17.802;2024-02-15T15:27:37;14.62;55.18
74792;SHT30;63319;46.046;17.802;2024-02-15T15:30:40;14.72;54.75
74792;SHT30;63319;46.046;17.802;2024-02-15T15:33:43;14.38;55.55
74792;SHT30;63319;46.046;17.802;2024-02-15T15:36:46;14.31;55.71
74792;SHT30;63319;46.046;17.802;2024-02-15T15:39:52;14.33;55.64
74792;SHT30;63319;46.046;17.802;2024-02-15T15:42:58;14.27;56.07
74792;SHT30;63319;46.046;17.802;2024-02-15T15:46:00;14.13;56.76
74792;SHT30;63319;46.046;17.802;2024-02-15T15:49:04;14.14;56.59
74792;SHT30;63319;46.046;17.802;2024-02-15T15:52:08;13.89;57.39
74792;SHT30;63319;46.046;17.802;2024-02-15T15:55:11;13.93;57.40
74792;SHT30;63319;46.046;17.802;2024-02-15T15:58:14;13.93;57.49
74792;SHT30;63319;46.046;17.802;2024-02-15T16:01:18;13.80;57.67
74792;SHT30;63319;46.046;17.802;2024-02-15T16:04:22;13.75;57.86
74792;SHT30;63319;46.046;17.802;2024-02-15T16:07:25;13.65;58.25
74792;SHT30;63319;46.046;17.802;2024-02-15T16:10:29;13.76;58.21
74792;SHT30;63319;46.046;17.802;2024-02-15T16:13:32;13.49;59.14
74792;SHT30;63319;46.046;17.802;2024-02-15T16:16:35;13.32;60.18
74792;SHT30;63319;46.046;17.802;2024-02-15T16:19:38;13.18;61.17
74792;SHT30;63319;46.046;17.802;2024-02-15T16:22:41;13.07;61.59
74792;SHT30;63319;46.046;17.802;2024-02-15T16:25:44;12.83;62.55
74792;SHT30;63319;46.046;17.802;2024-02-15T16:28:48;12.50;63.68
74792;SHT30;63319;46.046;17.802;2024-02-15T16:31:50;12.49;63.58
74792;SHT30;63319;46.046;17.802;2024-02-15T16:34:54;12.06;64.98
74792;SHT30;63319;46.046;17.802;2024-02-15T16:38:02;12.19;64.86
74792;SHT30;63319;46.046;17.802;2024-02-15T16:41:05;12.06;65.48
74792;SHT30;63319;46.046;17.802;2024-02-15T16:44:09;11.99;66.10
74792;SHT30;63319;46.046;17.802;2024-02-15T16:47:14;11.63;67.39
74792;SHT30;63319;46.046;17.802;2024-02-15T16:50:43;11.29;68.59
74792;SHT30;63319;46.046;17.802;2024-02-15T16:53:49;11.29;67.87
74792;SHT30;63319;46.046;17.802;2024-02-15T16:56:52;11.66;66.06
74792;SHT30;63319;46.046;17.802;2024-02-15T17:00:10;11.25;67.94
74792;SHT30;63319;46.046;17.802;2024-02-15T17:03:15;11.23;67.30
74792;SHT30;63319;46.046;17.802;2024-02-15T17:06:19;11.30;67.03
74792;SHT30;63319;46.046;17.802;2024-02-15T17:09:22;11.05;67.89
74792;SHT30;63319;46.046;17.802;2024-02-15T17:12:25;11.05;67.60
74792;SHT30;63319;46.046;17.802;2024-02-15T17:15:29;10.92;67.98
74792;SHT30;63319;46.046;17.802;2024-02-15T17:18:32;10.82;68.38
74792;SHT30;63319;46.046;17.802;2024-02-15T17:21:40;10.75;68.65
74792;SHT30;63319;46.046;17.802;2024-02-15T17:24:44;10.81;68.85
74792;SHT30;63319;46.046;17.802;2024-02-15T17:27:47;10.72;68.34
74792;SHT30;63319;46.046;17.802;2024-02-15T17:30:52;10.72;68.12
74792;SHT30;63319;46.046;17.802;2024-02-15T17:33:54;10.69;68.34
74792;SHT30;63319;46.046;17.802;2024-02-15T17:36:58;10.71;68.49
74792;SHT30;63319;46.046;17.802;2024-02-15T17:40:01;10.88;67.15
74792;SHT30;63319;46.046;17.802;2024-02-15T17:43:04;10.58;68.33
74792;SHT30;63319;46.046;17.802;2024-02-15T17:46:08;10.43;68.80
74792;SHT30;63319;46.046;17.802;2024-02-15T17:49:10;10.41;68.62
74792;SHT30;63319;46.046;17.802;2024-02-15T17:52:13;10.40;68.30
74792;SHT30;63319;46.046;17.802;2024-02-15T17:55:17;10.19;69.35
74792;SHT30;63319;46.046;17.802;2024-02-15T17:58:20;10.37;68.85
74792;SHT30;63319;46.046;17.802;2024-02-15T18:01:24;10.21;69.24
74792;SHT30;63319;46.046;17.802;2024-02-15T18:04:27;10.19;69.22
74792;SHT30;63319;46.046;17.802;2024-02-15T18:07:30;10.13;69.32
74792;SHT30;63319;46.046;17.802;2024-02-15T18:10:34;10.10;69.22
74792;SHT30;63319;46.046;17.802;2024-02-15T18:13:37;10.12;68.99
74792;SHT30;63319;46.046;17.802;2024-02-15T18:16:42;10.02;69.29
74792;SHT30;63319;46.046;17.802;2024-02-15T18:19:51;9.93;69.46
74792;SHT30;63319;46.046;17.802;2024-02-15T18:22:54;9.86;69.61
74792;SHT30;63319;46.046;17.802;2024-02-15T18:25:58;9.86;69.36
74792;SHT30;63319;46.046;17.802;2024-02-15T18:29:01;9.81;69.36
74792;SHT30;63319;46.046;17.802;2024-02-15T18:32:04;9.71;69.58
74792;SHT30;63319;46.046;17.802;2024-02-15T18:35:08;9.52;70.15
74792;SHT30;63319;46.046;17.802;2024-02-15T18:38:15;9.38;70.54
74792;SHT30;63319;46.046;17.802;2024-02-15T18:41:20;9.45;70.41
74792;SHT30;63319;46.046;17.802;2024-02-15T18:44:23;9.26;71.65
74792;SHT30;63319;46.046;17.802;2024-02-15T18:47:28;9.37;70.92
74792;SHT30;63319;46.046;17.802;2024-02-15T18:50:32;9.35;70.22
74792;SHT30;63319;46.046;17.802;2024-02-15T18:53:37;9.33;70.25
74792;SHT30;63319;46.046;17.802;2024-02-15T18:56:40;9.19;70.31
74792;SHT30;63319;46.046;17.802;2024-02-15T18:59:44;9.31;69.79
74792;SHT30;63319;46.046;17.802;2024-02-15T19:02:48;9.31;69.23
74792;SHT30;63319;46.046;17.802;2024-02-15T19:05:53;9.27;69.28
74792;SHT30;63319;46.046;17.802;2024-02-15T19:08:56;9.30;69.21
74792;SHT30;63319;46.046;17.802;2024-02-15T19:12:00;9.24;69.28
74792;SHT30;63319;46.046;17.802;2024-02-15T19:15:04;9.10;69.43
74792;SHT30;63319;46.046;17.802;2024-02-15T19:18:09;9.14;69.48
74792;SHT30;63319;46.046;17.802;2024-02-15T19:21:13;8.97;71.07
74792;SHT30;63319;46.046;17.802;2024-02-15T19:24:17;8.87;70.67
74792;SHT30;63319;46.046;17.802;2024-02-15T19:27:20;8.93;70.10
74792;SHT30;63319;46.046;17.802;2024-02-15T19:30:23;8.62;71.40